Time;durP1;ratioP1;P1;durP2;ratioP2;P2;SDS_P1;SDS_P2;PMS_P1;PMS_P2;Temp;Humidity;BMP_temperature;BMP_pressure;BME280_temperature;BME280_humidity;BME280_pressure;Samples;Min_cycle;Max_cycle;Signal;HPM_P1;HPM_P2
2021/05/06 00:01:52;;;;;;;11.00;3.13;;;8.10;93.60;;;;;;5049313;28;20537;-48
2021/05/06 00:04:50;;;;;;;9.17;3.23;;;8.10;93.70;;;;;;5048968;28;20855;-48
2021/05/06 00:32:04;;;;;;;9.17;3.00;;;7.80;93.70;;;;;;5036096;28;20531;-47
2021/05/06 00:34:32;;;;;;;15.13;3.20;;;7.60;93.40;;;;;;5035263;28;20438;-47
2021/05/06 00:36:59;;;;;;;10.73;2.80;;;8.10;93.60;;;;;;5035788;28;20440;-48
2021/05/06 00:39:28;;;;;;;14.60;3.80;;;7.80;93.40;;;;;;5034803;28;20960;-48
2021/05/06 00:59:20;;;;;;;5.93;2.00;;;7.90;94.00;;;;;;5034634;28;20433;-48
2021/05/06 01:02:03;;;;;;;6.50;2.40;;;7.90;94.10;;;;;;5033058;28;20442;-48
2021/05/06 01:04:39;;;;;;;12.70;3.30;;;7.90;94.10;;;;;;5034625;28;20508;-48
2021/05/06 01:07:21;;;;;;;5.53;2.70;;;7.80;93.90;;;;;;5035092;28;20438;-48
2021/05/06 01:09:56;;;;;;;9.63;2.43;;;7.80;94.20;;;;;;5034707;28;20461;-47
2021/05/06 01:12:23;;;;;;;7.20;2.50;;;7.60;94.20;;;;;;5034337;28;20460;-49
2021/05/06 01:14:49;;;;;;;7.03;2.23;;;7.60;94.00;;;;;;5033790;28;20496;-48
2021/05/06 01:17:16;;;;;;;5.20;2.37;;;7.80;94.20;;;;;;5034463;28;20495;-47
2021/05/06 01:19:42;;;;;;;10.90;2.53;;;7.80;94.20;;;;;;5033287;28;20449;-49
2021/05/06 01:22:09;;;;;;;7.17;2.73;;;7.60;94.40;;;;;;5034382;28;20781;-49
2021/05/06 01:24:36;;;;;;;6.57;2.33;;;7.60;94.30;;;;;;5034279;28;20874;-49
2021/05/06 01:27:07;;;;;;;5.87;2.53;;;7.40;94.30;;;;;;5033354;28;20449;-49
2021/05/06 01:29:38;;;;;;;5.00;2.17;;;7.50;94.40;;;;;;5034325;28;20436;-48
2021/05/06 01:32:15;;;;;;;8.87;2.13;;;7.50;94.30;;;;;;5034130;28;20511;-48
2021/05/06 01:34:43;;;;;;;6.67;2.30;;;7.30;94.20;;;;;;5033348;28;20782;-49
2021/05/06 01:37:13;;;;;;;9.00;2.43;;;7.60;94.60;;;;;;5034255;28;20429;-48
2021/05/06 01:40:05;;;;;;;5.00;2.00;;;7.60;94.60;;;;;;5032996;28;20448;-48
2021/05/06 01:42:36;;;;;;;5.33;2.23;;;7.40;94.50;;;;;;5033904;28;20594;-49
2021/05/06 01:47:55;;;;;;;7.40;2.90;;;7.50;94.50;;;;;;5033934;28;20534;-49
2021/05/06 01:58:42;;;;;;;10.57;2.73;;;7.30;93.80;;;;;;5033835;28;20590;-48
2021/05/06 02:01:08;;;;;;;7.33;2.40;;;7.40;93.80;;;;;;5034174;28;20845;-48
2021/05/06 02:03:36;;;;;;;8.17;2.93;;;7.00;93.60;;;;;;5033302;28;20463;-49
2021/05/06 02:06:03;;;;;;;7.40;2.40;;;7.30;94.00;;;;;;5033695;28;20783;-48
2021/05/06 02:08:31;;;;;;;7.33;2.50;;;7.50;94.10;;;;;;5033854;28;20472;-48
2021/05/06 02:11:05;;;;;;;5.00;2.03;;;7.50;94.10;;;;;;5032370;28;20476;-49
2021/05/06 02:13:57;;;;;;;12.13;2.30;;;7.60;94.10;;;;;;5032016;28;20468;-47
2021/05/06 02:16:33;;;;;;;12.87;2.60;;;7.20;93.70;;;;;;5031974;28;20847;-49
2021/05/06 02:19:01;;;;;;;9.23;2.30;;;7.30;93.90;;;;;;5033301;28;20425;-49
2021/05/06 02:21:27;;;;;;;5.57;1.93;;;7.30;94.20;;;;;;5033638;28;20422;-49
2021/05/06 02:23:58;;;;;;;7.20;2.50;;;7.30;94.10;;;;;;5033048;28;20455;-48
2021/05/06 02:26:26;;;;;;;6.60;2.47;;;7.30;94.20;;;;;;5032075;28;20481;-49
2021/05/06 02:28:52;;;;;;;10.17;2.90;;;7.00;93.80;;;;;;5033183;28;20460;-48
2021/05/06 02:31:19;;;;;;;5.87;2.00;;;7.10;94.20;;;;;;5031856;28;20854;-49
2021/05/06 02:33:46;;;;;;;6.40;2.30;;;7.20;94.30;;;;;;5032717;28;20463;-48
2021/05/06 02:36:12;;;;;;;8.37;2.50;;;6.90;94.30;;;;;;5033325;28;20475;-49
2021/05/06 02:38:39;;;;;;;7.60;2.63;;;7.20;94.40;;;;;;5033543;28;20470;-49
2021/05/06 02:41:06;;;;;;;15.60;3.00;;;7.10;94.50;;;;;;5033134;28;20828;-48
2021/05/06 02:43:32;;;;;;;6.30;2.20;;;7.10;94.50;;;;;;5032968;28;20445;-49
2021/05/06 02:45:58;;;;;;;8.00;2.27;;;6.80;94.60;;;;;;5032557;28;20433;-48
2021/05/06 02:48:25;;;;;;;9.50;3.00;;;6.70;94.70;;;;;;5033239;28;20422;-48
2021/05/06 02:50:54;;;;;;;7.70;2.20;;;7.10;94.70;;;;;;5032154;28;20476;-47
2021/05/06 02:53:24;;;;;;;9.63;2.93;;;7.10;94.80;;;;;;5031681;28;20854;-49
2021/05/06 02:55:58;;;;;;;9.83;2.60;;;7.10;94.90;;;;;;5033149;28;20503;-49
2021/05/06 02:58:40;;;;;;;10.07;2.40;;;7.10;94.90;;;;;;5032740;28;20546;-48
2021/05/06 03:03:51;;;;;;;18.73;2.83;;;6.50;95.00;;;;;;5032193;28;20481;-49
2021/05/06 03:06:21;;;;;;;9.40;2.93;;;7.30;95.20;;;;;;5032401;28;20507;-49
2021/05/06 03:08:51;;;;;;;9.13;2.70;;;7.10;95.30;;;;;;5032519;28;20428;-49
2021/05/06 03:11:34;;;;;;;7.90;2.60;;;7.00;95.40;;;;;;5032916;28;20644;-48
2021/05/06 03:14:18;;;;;;;16.20;3.30;;;7.20;95.60;;;;;;5032203;28;20460;-48
2021/05/06 03:25:03;;;;;;;8.80;2.80;;;7.20;96.00;;;;;;5032490;28;20916;-48
2021/05/06 03:27:32;;;;;;;9.43;2.10;;;7.10;96.00;;;;;;5032999;28;20820;-48
2021/05/06 03:30:08;;;;;;;7.70;2.73;;;7.20;96.10;;;;;;5033418;28;20441;-48
2021/05/06 03:32:44;;;;;;;8.80;2.53;;;6.90;96.40;;;;;;5032965;28;20456;-48
2021/05/06 03:35:17;;;;;;;6.17;2.77;;;7.00;96.40;;;;;;5032299;28;20498;-49
2021/05/06 03:43:30;;;;;;;6.00;3.00;;;6.90;96.20;;;;;;5031721;28;20529;-48
2021/05/06 04:16:39;;;;;;;12.33;3.27;;;7.00;96.20;;;;;;5036119;28;20498;-49
2021/05/06 04:19:13;;;;;;;10.00;3.33;;;7.10;96.20;;;;;;5036850;28;20816;-47
2021/05/06 04:21:44;;;;;;;11.30;3.50;;;7.00;96.30;;;;;;5036189;28;20425;-49
2021/05/06 04:27:07;;;;;;;20.03;3.30;;;7.40;95.90;;;;;;5035945;28;20432;-48
2021/05/06 04:30:04;;;;;;;11.90;3.30;;;7.40;95.90;;;;;;5034277;28;20484;-49
2021/05/06 04:38:01;;;;;;;6.60;2.73;;;8.00;95.70;;;;;;5035350;28;20448;-49
2021/05/06 04:40:38;;;;;;;8.87;3.20;;;7.80;95.00;;;;;;5034886;28;20430;-48
2021/05/06 04:43:44;;;;;;;6.83;3.07;;;7.80;95.20;;;;;;5034142;28;20459;-47
2021/05/06 04:46:28;;;;;;;9.30;3.20;;;7.70;95.00;;;;;;5035188;28;20445;-48
2021/05/06 04:54:29;;;;;;;5.70;2.90;;;8.20;94.30;;;;;;5034837;28;20451;-47
2021/05/06 04:57:08;;;;;;;8.80;3.43;;;8.00;94.20;;;;;;5035537;28;21131;-49
2021/05/06 05:05:03;;;;;;;9.53;2.80;;;8.30;93.70;;;;;;5034957;28;20864;-48
2021/05/06 05:07:33;;;;;;;7.10;2.73;;;8.30;93.80;;;;;;5034664;28;20433;-48
2021/05/06 05:10:19;;;;;;;10.93;3.47;;;8.20;93.30;;;;;;5034156;28;20434;-48
2021/05/06 05:12:58;;;;;;;11.10;4.30;;;8.40;93.00;;;;;;5033932;28;20456;-49
2021/05/06 05:18:19;;;;;;;11.73;2.67;;;8.60;92.90;;;;;;5022903;28;20445;-47
2021/05/06 05:21:11;;;;;;;9.23;2.67;;;8.60;92.60;;;;;;5034114;28;20530;-49
2021/05/06 05:23:41;;;;;;;5.97;2.57;;;8.70;92.70;;;;;;5034458;28;21041;-46
2021/05/06 05:26:09;;;;;;;6.73;3.10;;;9.00;92.80;;;;;;5033879;28;20517;-48
2021/05/06 05:28:37;;;;;;;7.70;3.90;;;8.90;92.20;;;;;;5031730;28;20874;-47
2021/05/06 05:31:04;;;;;;;7.00;2.83;;;9.40;92.00;;;;;;5033463;28;20569;-46
2021/05/06 05:33:34;;;;;;;9.10;2.73;;;9.20;91.30;;;;;;5032715;28;20539;-47
2021/05/06 05:36:10;;;;;;;8.50;2.50;;;9.10;91.20;;;;;;5032882;28;20447;-47
2021/05/06 05:38:45;;;;;;;7.40;2.70;;;9.50;91.10;;;;;;5032994;28;20943;-46
2021/05/06 05:41:37;;;;;;;13.10;2.87;;;9.50;91.00;;;;;;5032680;28;20454;-47
2021/05/06 05:44:30;;;;;;;10.67;2.87;;;9.50;90.90;;;;;;5032441;28;20456;-48
2021/05/06 05:47:17;;;;;;;9.00;2.77;;;9.50;90.40;;;;;;5033879;28;20448;-46
2021/05/06 05:55:12;;;;;;;8.73;3.10;;;9.60;90.00;;;;;;5032220;28;20466;-45
2021/05/06 05:57:39;;;;;;;8.83;2.80;;;9.90;90.00;;;;;;5031280;28;20908;-47
2021/05/06 06:00:07;;;;;;;11.00;2.93;;;10.00;88.50;;;;;;5032391;28;20518;-47
2021/05/06 06:02:35;;;;;;;10.87;2.93;;;10.10;88.40;;;;;;5032004;28;20466;-48
2021/05/06 06:05:01;;;;;;;10.43;3.00;;;10.30;87.80;;;;;;5032310;28;20435;-47
2021/05/06 06:07:28;;;;;;;10.80;3.30;;;10.30;87.40;;;;;;5032579;28;20911;-46
2021/05/06 06:09:56;;;;;;;10.03;3.80;;;10.20;86.60;;;;;;5032060;28;20766;-47
2021/05/06 06:12:22;;;;;;;7.80;2.70;;;10.30;86.10;;;;;;5031671;28;20483;-46
2021/05/06 06:14:55;;;;;;;7.17;2.93;;;10.50;85.80;;;;;;5032531;28;20474;-48
2021/05/06 06:17:22;;;;;;;8.23;2.70;;;10.30;85.60;;;;;;5032619;28;20435;-47
2021/05/06 06:19:49;;;;;;;4.97;2.20;;;10.50;85.30;;;;;;5032568;28;20467;-47
2021/05/06 06:22:18;;;;;;;8.50;3.03;;;10.50;83.90;;;;;;5033512;28;20627;-48
2021/05/06 06:24:44;;;;;;;10.40;2.97;;;11.00;83.40;;;;;;5032171;28;20508;-48
2021/05/06 06:27:11;;;;;;;9.60;2.13;;;10.30;81.70;;;;;;5032198;28;20428;-48
2021/05/06 06:29:37;;;;;;;7.30;3.13;;;10.80;83.10;;;;;;5032401;28;20464;-46
2021/05/06 06:32:08;;;;;;;8.20;3.50;;;10.90;82.10;;;;;;5032365;28;20987;-47
2021/05/06 06:34:34;;;;;;;9.47;2.70;;;11.00;82.50;;;;;;5032189;28;20436;-46
2021/05/06 06:37:01;;;;;;;7.80;3.53;;;11.30;82.20;;;;;;5031553;28;20441;-47
2021/05/06 06:39:27;;;;;;;7.20;2.50;;;10.70;81.80;;;;;;5031489;28;20424;-48
2021/05/06 06:41:55;;;;;;;5.20;2.63;;;11.30;82.10;;;;;;5031730;28;20431;-48
2021/05/06 06:44:25;;;;;;;10.13;3.83;;;11.00;81.50;;;;;;5032539;28;20513;-47
2021/05/06 06:47:01;;;;;;;7.50;2.43;;;11.40;82.00;;;;;;5032035;28;20439;-47
2021/05/06 06:49:28;;;;;;;8.23;2.90;;;11.00;80.30;;;;;;5031509;28;20488;-48
2021/05/06 06:51:55;;;;;;;6.47;2.80;;;11.30;80.50;;;;;;5031434;28;20477;-47
2021/05/06 06:54:22;;;;;;;16.63;4.63;;;11.00;80.30;;;;;;5031040;28;20437;-47
2021/05/06 06:56:49;;;;;;;7.70;2.70;;;11.10;80.30;;;;;;5031396;28;20574;-48
2021/05/06 06:59:15;;;;;;;7.00;2.87;;;11.20;80.10;;;;;;5031967;28;20432;-48
2021/05/06 07:01:41;;;;;;;11.07;2.53;;;11.10;78.30;;;;;;5032124;28;20433;-48
2021/05/06 07:04:08;;;;;;;3.77;2.40;;;11.10;77.80;;;;;;5031540;28;20478;-45
2021/05/06 07:06:35;;;;;;;6.57;2.67;;;11.10;78.20;;;;;;5031330;28;20951;-48
2021/05/06 07:09:01;;;;;;;8.07;2.83;;;11.10;76.70;;;;;;5031397;28;20478;-47
2021/05/06 07:11:28;;;;;;;11.63;3.00;;;11.20;78.30;;;;;;5031317;28;20526;-48
2021/05/06 07:13:54;;;;;;;7.27;2.40;;;11.40;77.70;;;;;;5029896;28;20475;-48
2021/05/06 07:16:20;;;;;;;6.87;2.57;;;11.50;77.10;;;;;;5031435;28;20435;-48
2021/05/06 07:18:47;;;;;;;7.23;2.47;;;11.20;76.70;;;;;;5031576;28;20455;-47
2021/05/06 07:21:13;;;;;;;11.23;3.67;;;12.10;76.00;;;;;;5033297;28;20471;-47
2021/05/06 07:23:40;;;;;;;7.37;2.90;;;11.90;74.20;;;;;;5031318;28;20461;-46
2021/05/06 07:26:07;;;;;;;5.80;2.63;;;12.20;73.60;;;;;;5031650;28;20528;-47
2021/05/06 07:28:35;;;;;;;8.67;3.00;;;12.20;73.20;;;;;;5032243;28;20905;-45
2021/05/06 07:31:03;;;;;;;8.13;2.40;;;12.20;72.90;;;;;;5031735;28;20793;-46
2021/05/06 07:33:31;;;;;;;5.90;2.40;;;12.30;73.00;;;;;;5034259;28;20455;-46
2021/05/06 07:35:58;;;;;;;7.50;3.00;;;12.20;70.10;;;;;;5035123;28;20443;-46
2021/05/06 07:38:27;;;;;;;6.17;2.50;;;12.30;71.40;;;;;;5034992;28;20463;-48
2021/05/06 07:40:56;;;;;;;7.40;2.53;;;12.50;71.30;;;;;;5035705;28;20956;-47
2021/05/06 07:43:23;;;;;;;5.13;2.13;;;12.50;69.70;;;;;;5034627;28;20462;-46
2021/05/06 07:45:49;;;;;;;5.40;2.20;;;12.20;69.40;;;;;;5035111;28;20967;-47
2021/05/06 07:48:16;;;;;;;4.97;2.30;;;11.90;69.70;;;;;;5035186;28;20799;-46
2021/05/06 07:50:42;;;;;;;5.93;2.07;;;12.40;69.30;;;;;;5033812;28;20533;-46
2021/05/06 07:53:11;;;;;;;7.30;2.60;;;12.30;68.40;;;;;;5034300;28;20455;-45
2021/05/06 07:55:39;;;;;;;9.50;3.37;;;12.90;69.30;;;;;;5033549;28;20451;-46
2021/05/06 07:58:07;;;;;;;10.87;2.60;;;12.70;69.70;;;;;;5034799;28;20519;-46
2021/05/06 08:00:35;;;;;;;4.03;2.17;;;12.60;68.60;;;;;;5034335;28;20433;-48
2021/05/06 08:03:03;;;;;;;4.00;2.13;;;12.50;69.80;;;;;;5035298;28;20456;-48
2021/05/06 08:05:30;;;;;;;6.40;3.07;;;12.50;69.00;;;;;;5038324;28;20458;-48
2021/05/06 08:07:57;;;;;;;7.93;2.70;;;12.60;68.40;;;;;;5036242;28;20526;-46
2021/05/06 08:10:24;;;;;;;6.03;2.47;;;12.70;66.50;;;;;;5034601;28;20532;-47
2021/05/06 08:12:50;;;;;;;6.23;2.00;;;12.40;66.30;;;;;;5034273;28;20880;-47
2021/05/06 08:15:17;;;;;;;9.40;2.50;;;12.70;66.30;;;;;;5035077;28;20443;-46
2021/05/06 08:17:44;;;;;;;6.30;2.60;;;12.80;65.40;;;;;;5034764;28;20760;-47
2021/05/06 08:20:13;;;;;;;7.20;2.60;;;12.80;65.10;;;;;;5034128;28;20525;-47
2021/05/06 08:22:40;;;;;;;11.10;3.43;;;12.60;64.90;;;;;;5033931;28;20954;-46
2021/05/06 08:25:09;;;;;;;8.43;2.77;;;12.40;65.80;;;;;;5034766;28;20438;-46
2021/05/06 08:27:35;;;;;;;7.60;2.40;;;12.60;66.00;;;;;;5034348;28;20433;-46
2021/05/06 08:30:05;;;;;;;8.90;3.17;;;12.40;65.40;;;;;;5034628;28;20767;-47
2021/05/06 08:32:33;;;;;;;5.40;2.90;;;12.70;65.70;;;;;;5034443;28;20548;-45
2021/05/06 08:35:00;;;;;;;9.50;3.80;;;12.60;65.70;;;;;;5034434;28;20442;-45
2021/05/06 08:37:27;;;;;;;6.33;3.27;;;12.40;64.40;;;;;;5034247;28;20531;-47
2021/05/06 08:39:54;;;;;;;8.17;3.70;;;12.60;65.50;;;;;;5034015;28;20908;-46
2021/05/06 08:42:20;;;;;;;7.60;2.70;;;12.50;65.50;;;;;;5033351;28;20544;-46
2021/05/06 08:44:47;;;;;;;4.70;2.93;;;12.80;64.80;;;;;;5034056;28;20433;-46
2021/05/06 08:47:17;;;;;;;6.60;2.77;;;12.90;64.00;;;;;;5034282;28;20430;-46
2021/05/06 08:49:46;;;;;;;5.87;3.10;;;13.10;64.40;;;;;;5033803;28;20437;-45
2021/05/06 08:52:16;;;;;;;9.70;3.50;;;13.20;63.70;;;;;;5033765;28;20504;-46
2021/05/06 08:54:43;;;;;;;9.23;3.23;;;13.30;63.10;;;;;;5034469;28;20780;-46
2021/05/06 08:57:10;;;;;;;6.07;3.40;;;12.60;62.70;;;;;;5034531;28;20449;-47
2021/05/06 08:59:36;;;;;;;7.10;3.87;;;13.20;62.70;;;;;;5035010;28;20493;-45
2021/05/06 09:02:03;;;;;;;7.37;3.33;;;13.40;61.90;;;;;;5034751;28;20441;-47
2021/05/06 09:04:31;;;;;;;10.10;3.27;;;13.10;62.10;;;;;;5035213;28;20481;-46
2021/05/06 09:06:59;;;;;;;7.73;2.90;;;13.40;61.00;;;;;;5034545;28;20438;-46
2021/05/06 09:09:27;;;;;;;7.37;3.40;;;13.50;60.20;;;;;;5034143;28;20860;-48
2021/05/06 09:11:56;;;;;;;6.90;3.10;;;13.70;60.50;;;;;;5034243;28;20482;-45
2021/05/06 09:14:35;;;;;;;5.60;3.10;;;13.50;59.70;;;;;;5035219;28;20452;-46
2021/05/06 09:17:02;;;;;;;6.10;4.37;;;13.60;60.40;;;;;;5034319;28;20456;-45
2021/05/06 09:19:29;;;;;;;6.33;3.53;;;13.60;59.80;;;;;;5033900;28;20438;-46
2021/05/06 09:21:56;;;;;;;10.60;3.80;;;13.70;60.90;;;;;;5033784;28;20467;-46
2021/05/06 09:24:25;;;;;;;5.67;3.07;;;13.80;61.20;;;;;;5033589;28;20821;-46
2021/05/06 09:26:55;;;;;;;7.97;4.00;;;14.00;60.70;;;;;;5036092;28;20442;-46
2021/05/06 09:29:36;;;;;;;6.50;4.00;;;13.90;60.10;;;;;;5033376;28;20472;-46
2021/05/06 09:32:15;;;;;;;9.63;4.70;;;14.00;60.50;;;;;;5033650;28;20917;-47
2021/05/06 09:34:42;;;;;;;6.30;3.70;;;13.80;60.90;;;;;;5035047;28;20481;-45
2021/05/06 09:37:10;;;;;;;8.17;3.60;;;13.90;60.80;;;;;;5035609;28;20466;-46
2021/05/06 09:39:38;;;;;;;9.37;4.70;;;13.60;61.30;;;;;;5036302;28;20891;-45
2021/05/06 09:42:08;;;;;;;10.00;4.77;;;13.70;62.40;;;;;;5033942;28;20462;-46
2021/05/06 09:44:51;;;;;;;5.83;4.00;;;13.20;62.60;;;;;;5033115;28;20931;-46
2021/05/06 09:47:18;;;;;;;9.80;5.30;;;13.20;64.60;;;;;;5033335;28;20885;-46
2021/05/06 09:49:45;;;;;;;8.80;4.67;;;13.20;65.60;;;;;;5032365;28;20469;-47
2021/05/06 09:52:11;;;;;;;11.90;4.77;;;13.20;66.00;;;;;;5031627;28;20478;-46
2021/05/06 09:54:47;;;;;;;7.97;4.43;;;13.90;65.60;;;;;;5031261;28;20812;-45
2021/05/06 09:57:23;;;;;;;9.10;4.60;;;13.80;65.30;;;;;;5032430;28;20472;-46
2021/05/06 09:59:50;;;;;;;11.27;4.37;;;14.10;64.50;;;;;;5032680;28;20462;-46
2021/05/06 10:02:18;;;;;;;8.60;4.53;;;14.10;63.20;;;;;;5033016;28;20453;-47
2021/05/06 10:04:46;;;;;;;8.00;4.30;;;14.60;63.00;;;;;;5030786;28;20831;-46
2021/05/06 10:07:15;;;;;;;5.40;4.27;;;13.90;62.10;;;;;;5032099;28;20814;-47
2021/05/06 10:09:56;;;;;;;5.93;4.83;;;13.90;63.20;;;;;;5032416;28;20453;-45
2021/05/06 10:12:24;;;;;;;7.37;4.97;;;13.50;64.70;;;;;;5031905;28;20489;-46
2021/05/06 10:14:51;;;;;;;7.27;5.57;;;13.50;64.50;;;;;;5032241;28;20469;-46
2021/05/06 10:17:19;;;;;;;6.97;5.03;;;13.50;65.00;;;;;;5032146;28;20449;-46
2021/05/06 10:19:46;;;;;;;9.90;5.40;;;13.40;64.40;;;;;;5031130;28;20454;-48
2021/05/06 10:22:15;;;;;;;7.73;6.07;;;13.30;65.50;;;;;;5032191;28;20434;-49
2021/05/06 10:24:44;;;;;;;9.00;6.07;;;13.40;66.90;;;;;;5031926;28;20942;-48
2021/05/06 10:27:13;;;;;;;9.30;6.50;;;13.00;66.70;;;;;;5032220;28;20803;-49
2021/05/06 10:29:40;;;;;;;8.20;5.83;;;13.00;66.70;;;;;;5031992;28;20439;-48
2021/05/06 10:32:08;;;;;;;7.20;5.30;;;12.70;67.20;;;;;;5030674;28;20467;-49
2021/05/06 10:34:35;;;;;;;8.53;6.10;;;12.60;67.50;;;;;;5031633;28;20439;-49
2021/05/06 10:37:02;;;;;;;8.63;6.80;;;12.60;68.10;;;;;;5032075;28;20442;-47
2021/05/06 10:39:37;;;;;;;9.80;6.80;;;12.60;68.20;;;;;;5032013;28;20525;-46
2021/05/06 10:42:32;;;;;;;10.30;6.27;;;12.80;69.20;;;;;;5031783;28;20438;-48
2021/05/06 10:45:01;;;;;;;7.43;6.13;;;12.70;68.70;;;;;;5032545;28;20509;-48
2021/05/06 10:47:53;;;;;;;10.63;7.80;;;12.80;69.00;;;;;;5031799;28;20841;-48
2021/05/06 10:50:23;;;;;;;9.73;7.80;;;12.80;73.40;;;;;;5031822;28;20433;-47
2021/05/06 10:52:51;;;;;;;11.50;7.67;;;12.50;77.00;;;;;;5031379;28;20596;-48
2021/05/06 10:55:42;;;;;;;9.97;7.00;;;12.70;80.00;;;;;;5031382;28;20433;-47
2021/05/06 10:58:39;;;;;;;10.93;6.67;;;12.50;82.20;;;;;;5031962;28;20491;-47
2021/05/06 11:01:40;;;;;;;10.77;7.43;;;12.50;87.30;;;;;;4987137;28;20447;-48
2021/05/06 11:04:08;;;;;;;10.93;8.70;;;12.50;88.70;;;;;;5031131;28;20455;-50
2021/05/06 11:06:42;;;;;;;8.87;7.90;;;12.20;90.20;;;;;;5031026;28;20443;-47
2021/05/06 11:09:53;;;;;;;12.20;8.70;;;11.50;91.40;;;;;;5031941;28;20530;-46
2021/05/06 11:12:36;;;;;;;10.73;8.73;;;12.30;92.70;;;;;;5031728;28;20533;-48
2021/05/06 11:15:25;;;;;;;10.17;7.47;;;11.80;93.90;;;;;;5028338;28;20890;-47
2021/05/06 11:17:52;;;;;;;10.23;8.23;;;11.60;94.10;;;;;;5031640;28;20857;-48
2021/05/06 11:20:45;;;;;;;7.57;6.83;;;11.90;94.10;;;;;;5031277;28;20526;-48
2021/05/06 11:23:29;;;;;;;10.40;7.60;;;11.70;95.20;;;;;;5044636;23;20507;-46
2021/05/06 11:26:08;;;;;;;10.10;8.00;;;11.80;96.20;;;;;;5031092;28;20936;-46
2021/05/06 11:28:52;;;;;;;10.70;6.90;;;11.80;97.00;;;;;;5029762;28;20524;-46
2021/05/06 11:31:51;;;;;;;8.77;7.17;;;11.80;96.50;;;;;;5030890;28;20513;-46
2021/05/06 11:34:49;;;;;;;6.77;6.07;;;12.00;96.70;;;;;;5030875;28;20440;-46
2021/05/06 11:37:27;;;;;;;8.23;7.43;;;12.10;96.80;;;;;;5029635;28;20433;-46
2021/05/06 11:39:59;;;;;;;11.13;10.03;;;11.80;96.60;;;;;;5031103;28;20503;-46
2021/05/06 11:42:27;;;;;;;10.13;8.70;;;12.20;96.60;;;;;;5029063;28;20459;-46
2021/05/06 11:45:11;;;;;;;25.57;17.23;;;12.10;96.40;;;;;;5031571;28;20440;-47
2021/05/06 11:47:38;;;;;;;13.40;10.23;;;12.40;97.10;;;;;;5030945;28;20870;-46
2021/05/06 11:50:19;;;;;;;10.77;8.70;;;12.70;96.70;;;;;;5030267;28;20434;-46
2021/05/06 11:52:46;;;;;;;8.47;7.67;;;12.20;95.80;;;;;;5030011;28;20483;-47
2021/05/06 11:55:30;;;;;;;8.90;7.20;;;12.50;95.10;;;;;;5030782;28;20590;-47
2021/05/06 11:57:57;;;;;;;9.57;6.97;;;12.60;94.60;;;;;;5030670;28;20437;-47
2021/05/06 12:00:25;;;;;;;10.47;7.27;;;12.60;94.60;;;;;;5030521;28;20516;-48
2021/05/06 12:03:01;;;;;;;13.53;8.63;;;12.80;93.60;;;;;;5030110;28;20459;-47
2021/05/06 12:05:50;;;;;;;7.93;7.13;;;12.90;93.60;;;;;;5030823;28;20435;-47
2021/05/06 12:08:17;;;;;;;10.93;7.33;;;12.90;93.50;;;;;;5030990;28;20530;-47
2021/05/06 12:10:44;;;;;;;7.60;6.90;;;13.10;93.00;;;;;;5030740;28;20432;-47
2021/05/06 12:13:10;;;;;;;8.67;7.77;;;13.30;92.30;;;;;;5029977;28;20515;-47
2021/05/06 12:15:37;;;;;;;11.80;6.53;;;13.20;91.70;;;;;;5030961;28;20870;-47
2021/05/06 12:18:18;;;;;;;8.30;7.20;;;13.50;92.30;;;;;;5031540;28;20434;-47
2021/05/06 12:20:52;;;;;;;10.40;7.30;;;14.00;91.60;;;;;;5033145;28;20451;-46
2021/05/06 12:23:19;;;;;;;7.53;6.80;;;13.20;89.90;;;;;;5033929;28;20470;-46
2021/05/06 12:25:45;;;;;;;10.00;7.53;;;13.80;90.60;;;;;;5034122;28;20518;-47
2021/05/06 12:28:11;;;;;;;9.80;7.27;;;13.40;89.80;;;;;;5034416;28;20980;-47
2021/05/06 12:30:38;;;;;;;9.20;6.97;;;13.70;89.50;;;;;;5034043;28;20426;-47
2021/05/06 12:33:05;;;;;;;8.17;6.83;;;14.10;89.00;;;;;;5032863;28;20510;-47
2021/05/06 12:35:32;;;;;;;6.80;6.10;;;14.20;87.90;;;;;;5033725;28;20447;-46
2021/05/06 12:37:59;;;;;;;6.27;5.60;;;14.50;86.80;;;;;;5033622;28;20445;-46
2021/05/06 12:40:27;;;;;;;9.93;6.17;;;14.70;85.60;;;;;;5033749;28;20939;-47
2021/05/06 12:42:55;;;;;;;7.83;6.03;;;14.70;84.60;;;;;;5033156;28;20841;-47
2021/05/06 12:45:27;;;;;;;6.63;6.03;;;14.60;83.60;;;;;;5033619;28;20938;-47
2021/05/06 12:47:54;;;;;;;9.40;7.23;;;14.70;83.10;;;;;;5033928;28;20447;-47
2021/05/06 12:50:22;;;;;;;7.60;6.60;;;14.60;83.00;;;;;;5033724;28;21025;-46
2021/05/06 12:52:51;;;;;;;6.80;6.10;;;14.60;81.60;;;;;;5033767;28;20485;-46
2021/05/06 12:55:19;;;;;;;7.03;5.60;;;14.50;80.30;;;;;;5034034;28;20566;-48
2021/05/06 12:58:03;;;;;;;6.80;5.93;;;14.60;79.30;;;;;;5033939;28;20538;-46
2021/05/06 13:00:32;;;;;;;6.60;5.60;;;14.40;77.80;;;;;;5033293;28;20478;-47
2021/05/06 13:03:02;;;;;;;5.03;4.43;;;14.70;77.80;;;;;;5032456;28;20466;-52
2021/05/06 13:05:30;;;;;;;6.17;4.30;;;14.40;76.20;;;;;;5033276;28;20446;-46
2021/05/06 13:07:57;;;;;;;11.63;5.47;;;14.50;75.10;;;;;;5033581;28;20794;-46
2021/05/06 13:10:28;;;;;;;4.90;4.00;;;14.70;73.90;;;;;;5032828;28;20440;-46
2021/05/06 13:12:55;;;;;;;5.00;4.53;;;14.40;70.90;;;;;;5032896;28;20946;-48
2021/05/06 13:15:21;;;;;;;4.37;3.97;;;14.30;69.80;;;;;;5033171;28;20443;-47
2021/05/06 13:17:48;;;;;;;6.57;4.40;;;14.30;70.00;;;;;;5031796;28;20444;-47
2021/05/06 13:20:17;;;;;;;6.77;4.33;;;14.30;70.30;;;;;;5033316;28;20531;-47
2021/05/06 13:22:59;;;;;;;4.20;3.80;;;14.80;71.40;;;;;;5033193;28;20435;-47
2021/05/06 13:25:45;;;;;;;12.33;4.60;;;14.40;70.50;;;;;;5032957;28;20507;-47
2021/05/06 13:28:13;;;;;;;4.40;4.00;;;14.50;71.20;;;;;;5033292;28;20796;-47
2021/05/06 13:30:40;;;;;;;4.87;3.93;;;14.50;70.50;;;;;;5032509;28;21002;-47
2021/05/06 13:33:17;;;;;;;5.83;3.90;;;14.80;69.60;;;;;;5032387;28;20535;-47
2021/05/06 13:36:00;;;;;;;4.67;4.17;;;14.50;69.20;;;;;;5032219;28;20472;-47
2021/05/06 13:38:45;;;;;;;4.77;3.90;;;14.40;67.50;;;;;;5032718;28;20789;-48
2021/05/06 13:41:12;;;;;;;4.23;3.83;;;14.00;67.20;;;;;;5032920;28;20920;-48
2021/05/06 13:43:39;;;;;;;5.40;4.70;;;14.00;66.60;;;;;;5030558;28;20519;-47
2021/05/06 13:46:08;;;;;;;4.07;3.30;;;14.30;67.20;;;;;;5032168;28;20427;-47
2021/05/06 13:48:35;;;;;;;4.50;4.10;;;14.20;66.30;;;;;;5032292;28;20492;-47
2021/05/06 13:51:01;;;;;;;4.37;3.40;;;14.90;66.30;;;;;;5032256;28;20446;-47
2021/05/06 13:53:29;;;;;;;4.20;3.70;;;14.50;65.70;;;;;;5032274;28;20535;-47
2021/05/06 13:55:55;;;;;;;4.17;3.33;;;14.90;65.70;;;;;;5032474;28;20440;-47
2021/05/06 13:58:21;;;;;;;2.83;2.57;;;14.70;64.70;;;;;;5031103;28;20444;-47
2021/05/06 14:00:47;;;;;;;4.70;3.10;;;14.60;63.10;;;;;;5032169;28;20436;-46
2021/05/06 14:03:14;;;;;;;5.70;2.93;;;14.90;63.70;;;;;;5031980;28;20439;-47
2021/05/06 14:05:40;;;;;;;5.60;3.30;;;14.80;63.40;;;;;;5032499;28;20563;-47
2021/05/06 14:08:06;;;;;;;4.20;3.43;;;14.50;61.10;;;;;;5032809;28;20437;-47
2021/05/06 14:10:35;;;;;;;6.17;2.80;;;14.40;59.90;;;;;;5032344;28;20435;-47
2021/05/06 14:13:01;;;;;;;3.63;3.10;;;14.50;60.70;;;;;;5029720;28;20523;-47
2021/05/06 14:15:28;;;;;;;5.30;3.53;;;15.00;60.40;;;;;;5031852;28;20446;-46
2021/05/06 14:17:54;;;;;;;4.33;3.27;;;14.50;58.50;;;;;;5031843;28;20932;-47
2021/05/06 14:20:20;;;;;;;4.73;4.10;;;14.50;59.10;;;;;;5032093;28;20428;-46
2021/05/06 14:22:47;;;;;;;3.23;2.83;;;14.40;59.50;;;;;;5031217;28;20545;-47
2021/05/06 14:25:14;;;;;;;4.00;3.23;;;15.00;60.50;;;;;;5032138;28;20470;-47
2021/05/06 14:27:42;;;;;;;5.50;3.37;;;14.80;60.30;;;;;;5031794;28;20440;-47
2021/05/06 14:30:10;;;;;;;3.83;3.53;;;14.70;59.40;;;;;;5031596;28;20431;-46
2021/05/06 14:32:36;;;;;;;3.97;3.30;;;14.70;58.90;;;;;;5030893;28;20486;-48
2021/05/06 14:35:06;;;;;;;4.90;3.77;;;14.50;59.10;;;;;;5031632;28;20483;-47
2021/05/06 14:37:32;;;;;;;3.37;3.07;;;14.60;59.40;;;;;;5031828;28;20777;-47
2021/05/06 14:39:59;;;;;;;3.33;2.90;;;15.00;59.40;;;;;;5031304;28;20771;-47
2021/05/06 14:42:25;;;;;;;4.70;3.50;;;14.70;59.50;;;;;;5030743;28;20897;-47
2021/05/06 14:44:53;;;;;;;4.37;3.97;;;14.70;59.50;;;;;;5029777;28;20450;-47
2021/05/06 14:47:19;;;;;;;3.80;3.27;;;15.20;60.00;;;;;;5030463;28;20756;-47
2021/05/06 14:49:45;;;;;;;3.40;3.13;;;14.80;58.70;;;;;;5031763;28;20952;-47
2021/05/06 14:52:12;;;;;;;3.33;3.03;;;14.80;57.90;;;;;;5031315;28;20475;-47
2021/05/06 14:54:38;;;;;;;2.93;2.70;;;15.30;58.30;;;;;;5030702;28;20447;-47
2021/05/06 14:57:05;;;;;;;3.50;3.20;;;14.90;57.80;;;;;;5031519;28;20493;-46
2021/05/06 14:59:32;;;;;;;3.20;2.90;;;14.90;58.00;;;;;;5031119;28;20913;-47
2021/05/06 15:02:00;;;;;;;3.10;2.83;;;14.90;57.80;;;;;;5030351;28;20437;-47
2021/05/06 15:04:27;;;;;;;3.17;2.87;;;15.00;57.90;;;;;;5031198;28;20554;-47
2021/05/06 15:06:53;;;;;;;3.27;2.97;;;14.90;56.90;;;;;;5031399;28;20436;-47
2021/05/06 15:09:21;;;;;;;3.40;3.10;;;14.80;57.10;;;;;;5031842;28;20431;-47
2021/05/06 15:11:47;;;;;;;5.17;3.10;;;14.80;57.60;;;;;;5031394;28;20475;-47
2021/05/06 15:14:14;;;;;;;4.63;2.67;;;14.80;57.20;;;;;;5031245;28;20455;-47
2021/05/06 15:16:40;;;;;;;3.73;3.13;;;14.90;56.80;;;;;;5031026;28;20435;-46